Aeroporto :
LOGIN :

Iscrizione | Disclaimer

   EN    FR    IT 

 










Sommario :    VFR   VFR Marginale   IFR   IFR Intensivo   IFR Molto Intensivo
Visibilità : 
Base nubi : 
>= 8 km
>= 3000ft
5 / 8 km
1000 / 3000 ft
1500m / 5 km
500 / 1000 ft
800 / 1500m
200 / 500 ft
< 800m
< 200 ft
Simboli :   Temporali  Nebbia  Neve Forte  Precipitazioni Forti  Vento > 20 kt
SIGMETs :   Varie  Temporali  Ghiacco  Turbolenza  Onda orograficha  Ceneri Vulcaniche






- Altitudine del aeroporto : 587 ft
- Codice IATA : XCR


LFOK - Chalons Vatry

ULTIMO METAR :
  • 151430Z AUTO 15006KT 120V190 9999 ///TCU 25/19 Q1008 TEMPO VRB18G35KT 1500 TSRAGS SCT014 BKN035CB

METARs OBSOLETI :
  • 151400Z AUTO VRB02KT 9999 FEW030/// BKN110/// OVC130/// ///CB 24/20 Q1008 TEMPO VRB18G35KT 1500 TSRAGS
  • 151330Z AUTO 18005KT 9999 FEW033/// BKN100/// ///CB 24/20 Q1009 TEMPO VRB18G35KT 1500 TSRAGS
  • 151300Z AUTO 18007KT 9999 -RA FEW048/// OVC100/// ///TCU 25/18 Q1009 TEMPO VRB18G35KT 1500 TSRAGS SCT014 BKN035CB
  • 151230Z AUTO 15009KT 9999 ///TCU 27/16 Q1008 TEMPO VRB18G35KT 1500 TSRAGS SCT014 BKN035CB
  • 151200Z AUTO 13010KT 100V160 CAVOK 28/16 Q1008 NOSIG
  • 151130Z AUTO 15009KT 100V190 9999 FEW007 28/15 Q1009 NOSIG
  • 151100Z AUTO 14010KT 100V180 CAVOK 27/14 Q1009 NOSIG
  • 151030Z AUTO 14009KT 100V170 CAVOK 27/13 Q1009 NOSIG
  • 151000Z AUTO 15008KT CAVOK 25/14 Q1010 NOSIG
  • 150930Z AUTO 14010KT 110V170 CAVOK 25/13 Q1010 NOSIG

TAF TAF LFOK
Valido dal 15 a 12 ore il 16 a 12 ore UTC


151100Z 1512/1612 13010KT CAVOK
TEMPO 1514/1521 4000 SHRA BKN040TCU
PROB40
TEMPO 1514/1520 VRB18G35KT 1500 TSRAGS SCT014 BKN035CB
BECMG 1521/1522 22010KT
BECMG 1606/1608 23015G25KT BKN025



MetMap, La meteo Aeronautica in un colpo d'occhio ! - Copyright ORBIFLY Dicembre 2007 - Disclaimer

ORBIFLY MET'MAP TEAM :

Programmazione e sviluppo : Alexandra Zaïnal
Concezione : Baudouin d'Aumeries
Supporto tecnico e logistico : Manuel Goepfert
Aiuto : Marc-Olivier Méhu
Aiuto per la traduzione : Arnaldo La Scala




FONTI E CREDITI :

   NOAA